Airfield :
LOGIN :

Register | Disclaimer

   EN    FR    IT 

 










Legend :    VFR   Marginal VFR   IFR   Intensive IFR   Very Intensive IFR
Visi :
Ceiling :
>= 8 km
>= 3000ft
5 to 8 km
1000 to 3000 ft
1500m to 5 km
500 to 1000 ft
800 to 1500m
200 to 500 ft
< 800m
< 200 ft
Symbols :   Thunderstorms  Fog  Heavy snow  Heavy precipitations  Wind > 20 kt
SIGMETs :     Misc.  Thunderstorms  Icing  Turbulence  Mountain Waves  Volcanic Ashes






- Airport Elevation : 273 ft


EGXT - RAF Wittering Stamford

CURRENT METAR :
  • 050650Z 35010KT 4500 -DZ SCT005 BKN015 08/07 Q0993 /

EXPIRED METARs :
  • 050624Z 31014KT 4400 RADZ SCT007 BKN011 09/07 Q0993 GRN
  • 050550Z 28014KT 9999 SCT016 SCT027 BKN050 10/07 Q0993 WHT
  • 050450Z AUTO 27015KT 9999 SCT050/// 09/06 Q0993

TAF TAF EGXT
Valid from the 05 at 06:00 until the 05 at 15:00 UTC


050510Z 0506/0515 32013KT 9999 FEW010 BKN020
TEMPO 0506/0508 BKN010
BECMG 0508/0510 FEW020
BECMG 0510/0513 29015G25KT
TEMPO 0510/0515 7000 SHRA
PROB40
TEMPO 0511/0515 4000 +SHRA BKN024CB



MET'MAP, your aeronautical weather chart ! - Copyright ORBIFLY December 2007 - Disclaimer

ORBIFLY MET'MAP TEAM :

Programming & Development : Alexandra Zaïnal
Concept & original design : Baudouin d'Aumeries
Assistance for programming : Marc-Olivier Méhu
Technical & hardware support : Manuel Goepfert

Contact : metmap@orbifly.com




SOURCES & CREDITS :

   NOAA